sensor_id;sensor_type;location;lat;lon;timestamp;P1;durP1;ratioP1;P2;durP2;ratioP2
40793;SDS011;26502;51.886;15.604;2022-07-04T00:00:39;4.50;;;4.10;;
40793;SDS011;26502;51.886;15.604;2022-07-04T00:05:46;4.60;;;4.20;;
40793;SDS011;26502;51.886;15.604;2022-07-04T00:10:53;5.80;;;4.20;;
40793;SDS011;26502;51.886;15.604;2022-07-04T00:16:00;4.60;;;4.20;;
40793;SDS011;26502;51.886;15.604;2022-07-04T00:21:07;4.70;;;4.10;;
40793;SDS011;26502;51.886;15.604;2022-07-04T00:26:15;4.60;;;4.20;;
40793;SDS011;26502;51.886;15.604;2022-07-04T00:31:22;6.00;;;4.10;;
40793;SDS011;26502;51.886;15.604;2022-07-04T00:36:29;4.60;;;3.90;;
40793;SDS011;26502;51.886;15.604;2022-07-04T00:41:36;8.80;;;3.80;;
40793;SDS011;26502;51.886;15.604;2022-07-04T00:51:52;4.60;;;4.20;;
40793;SDS011;26502;51.886;15.604;2022-07-04T00:56:59;5.70;;;4.10;;
40793;SDS011;26502;51.886;15.604;2022-07-04T01:02:08;4.90;;;4.30;;
40793;SDS011;26502;51.886;15.604;2022-07-04T01:07:15;5.00;;;4.10;;
40793;SDS011;26502;51.886;15.604;2022-07-04T01:12:26;4.80;;;4.30;;
40793;SDS011;26502;51.886;15.604;2022-07-04T01:17:34;4.60;;;4.20;;
40793;SDS011;26502;51.886;15.604;2022-07-04T01:22:42;5.50;;;4.50;;
40793;SDS011;26502;51.886;15.604;2022-07-04T01:27:49;4.50;;;4.10;;
40793;SDS011;26502;51.886;15.604;2022-07-04T01:32:57;4.50;;;4.10;;
40793;SDS011;26502;51.886;15.604;2022-07-04T01:38:03;5.30;;;4.20;;
40793;SDS011;26502;51.886;15.604;2022-07-04T01:43:11;4.30;;;4.00;;
40793;SDS011;26502;51.886;15.604;2022-07-04T01:48:19;4.60;;;4.10;;
40793;SDS011;26502;51.886;15.604;2022-07-04T01:53:27;5.20;;;4.70;;
40793;SDS011;26502;51.886;15.604;2022-07-04T01:58:35;4.50;;;4.10;;
40793;SDS011;26502;51.886;15.604;2022-07-04T02:03:42;4.40;;;4.00;;
40793;SDS011;26502;51.886;15.604;2022-07-04T02:08:50;5.40;;;5.00;;
40793;SDS011;26502;51.886;15.604;2022-07-04T02:14:15;7.10;;;4.80;;
40793;SDS011;26502;51.886;15.604;2022-07-04T02:19:22;5.40;;;4.10;;
40793;SDS011;26502;51.886;15.604;2022-07-04T02:24:30;5.40;;;4.90;;
40793;SDS011;26502;51.886;15.604;2022-07-04T02:29:37;4.40;;;4.00;;
40793;SDS011;26502;51.886;15.604;2022-07-04T02:34:44;5.30;;;4.60;;
40793;SDS011;26502;51.886;15.604;2022-07-04T02:39:54;4.50;;;4.10;;
40793;SDS011;26502;51.886;15.604;2022-07-04T02:45:02;4.60;;;4.20;;
40793;SDS011;26502;51.886;15.604;2022-07-04T02:50:11;5.90;;;4.20;;
40793;SDS011;26502;51.886;15.604;2022-07-04T02:55:18;6.20;;;5.00;;
40793;SDS011;26502;51.886;15.604;2022-07-04T03:00:32;5.40;;;4.80;;
40793;SDS011;26502;51.886;15.604;2022-07-04T03:05:40;8.10;;;4.70;;
40793;SDS011;26502;51.886;15.604;2022-07-04T03:10:47;7.00;;;5.00;;
40793;SDS011;26502;51.886;15.604;2022-07-04T03:15:55;7.10;;;5.00;;
40793;SDS011;26502;51.886;15.604;2022-07-04T03:21:02;5.10;;;4.70;;
40793;SDS011;26502;51.886;15.604;2022-07-04T03:26:10;5.40;;;4.90;;
40793;SDS011;26502;51.886;15.604;2022-07-04T03:31:17;5.30;;;4.80;;
40793;SDS011;26502;51.886;15.604;2022-07-04T03:36:24;6.70;;;5.80;;
40793;SDS011;26502;51.886;15.604;2022-07-04T03:41:32;5.70;;;5.10;;
40793;SDS011;26502;51.886;15.604;2022-07-04T03:46:39;6.70;;;5.40;;
40793;SDS011;26502;51.886;15.604;2022-07-04T03:51:47;11.10;;;5.50;;
40793;SDS011;26502;51.886;15.604;2022-07-04T03:56:54;7.80;;;5.70;;
40793;SDS011;26502;51.886;15.604;2022-07-04T04:02:02;9.80;;;5.60;;
40793;SDS011;26502;51.886;15.604;2022-07-04T04:07:09;8.50;;;5.40;;
40793;SDS011;26502;51.886;15.604;2022-07-04T04:12:16;7.60;;;5.20;;
40793;SDS011;26502;51.886;15.604;2022-07-04T04:17:25;8.70;;;5.30;;
40793;SDS011;26502;51.886;15.604;2022-07-04T04:22:32;5.90;;;5.30;;
40793;SDS011;26502;51.886;15.604;2022-07-04T04:27:39;5.90;;;5.30;;
40793;SDS011;26502;51.886;15.604;2022-07-04T04:32:47;7.30;;;5.90;;
40793;SDS011;26502;51.886;15.604;2022-07-04T04:37:54;13.90;;;6.10;;
40793;SDS011;26502;51.886;15.604;2022-07-04T04:43:01;6.80;;;5.30;;
40793;SDS011;26502;51.886;15.604;2022-07-04T04:48:09;10.20;;;6.40;;
40793;SDS011;26502;51.886;15.604;2022-07-04T04:53:18;9.90;;;6.60;;
40793;SDS011;26502;51.886;15.604;2022-07-04T04:58:29;7.60;;;5.80;;
40793;SDS011;26502;51.886;15.604;2022-07-04T05:03:36;9.30;;;6.50;;
40793;SDS011;26502;51.886;15.604;2022-07-04T05:08:43;9.20;;;6.00;;
40793;SDS011;26502;51.886;15.604;2022-07-04T05:13:50;7.90;;;6.00;;
40793;SDS011;26502;51.886;15.604;2022-07-04T05:19:00;9.10;;;5.50;;
40793;SDS011;26502;51.886;15.604;2022-07-04T05:24:09;7.60;;;5.60;;
40793;SDS011;26502;51.886;15.604;2022-07-04T05:29:16;7.50;;;5.30;;
40793;SDS011;26502;51.886;15.604;2022-07-04T05:34:25;6.60;;;6.00;;
40793;SDS011;26502;51.886;15.604;2022-07-04T05:44:37;7.70;;;5.90;;
40793;SDS011;26502;51.886;15.604;2022-07-04T05:49:46;6.40;;;5.80;;
40793;SDS011;26502;51.886;15.604;2022-07-04T05:54:54;6.80;;;5.50;;
40793;SDS011;26502;51.886;15.604;2022-07-04T06:00:01;8.50;;;5.70;;
40793;SDS011;26502;51.886;15.604;2022-07-04T06:05:12;9.10;;;5.60;;
40793;SDS011;26502;51.886;15.604;2022-07-04T06:10:19;5.80;;;5.20;;
40793;SDS011;26502;51.886;15.604;2022-07-04T06:15:27;10.60;;;6.20;;
40793;SDS011;26502;51.886;15.604;2022-07-04T06:20:35;5.60;;;5.10;;
40793;SDS011;26502;51.886;15.604;2022-07-04T06:25:43;7.70;;;5.20;;
40793;SDS011;26502;51.886;15.604;2022-07-04T06:30:51;7.80;;;5.30;;
40793;SDS011;26502;51.886;15.604;2022-07-04T06:35:58;7.60;;;5.70;;
40793;SDS011;26502;51.886;15.604;2022-07-04T06:41:05;6.00;;;5.10;;
40793;SDS011;26502;51.886;15.604;2022-07-04T06:46:13;6.30;;;5.60;;
40793;SDS011;26502;51.886;15.604;2022-07-04T06:51:20;5.40;;;4.90;;
40793;SDS011;26502;51.886;15.604;2022-07-04T06:56:27;5.90;;;5.40;;
40793;SDS011;26502;51.886;15.604;2022-07-04T07:01:36;5.40;;;4.90;;
40793;SDS011;26502;51.886;15.604;2022-07-04T07:06:43;5.90;;;5.40;;
40793;SDS011;26502;51.886;15.604;2022-07-04T07:11:50;5.90;;;5.40;;
40793;SDS011;26502;51.886;15.604;2022-07-04T07:16:58;9.10;;;5.10;;
40793;SDS011;26502;51.886;15.604;2022-07-04T07:27:12;7.80;;;5.10;;
40793;SDS011;26502;51.886;15.604;2022-07-04T07:32:19;4.80;;;4.50;;
40793;SDS011;26502;51.886;15.604;2022-07-04T07:37:26;5.00;;;4.50;;
40793;SDS011;26502;51.886;15.604;2022-07-04T07:42:33;6.10;;;4.90;;
40793;SDS011;26502;51.886;15.604;2022-07-04T07:47:42;5.70;;;4.70;;
40793;SDS011;26502;51.886;15.604;2022-07-04T07:52:49;5.50;;;4.10;;
40793;SDS011;26502;51.886;15.604;2022-07-04T07:57:58;9.50;;;4.70;;
40793;SDS011;26502;51.886;15.604;2022-07-04T08:03:07;5.20;;;4.20;;
40793;SDS011;26502;51.886;15.604;2022-07-04T08:08:31;4.40;;;4.00;;
40793;SDS011;26502;51.886;15.604;2022-07-04T08:13:38;4.30;;;3.90;;
40793;SDS011;26502;51.886;15.604;2022-07-04T08:18:46;4.20;;;3.90;;
40793;SDS011;26502;51.886;15.604;2022-07-04T08:23:54;5.50;;;4.00;;
40793;SDS011;26502;51.886;15.604;2022-07-04T08:29:04;5.10;;;3.90;;
40793;SDS011;26502;51.886;15.604;2022-07-04T08:34:12;6.90;;;3.50;;
40793;SDS011;26502;51.886;15.604;2022-07-04T08:39:23;4.60;;;3.80;;
40793;SDS011;26502;51.886;15.604;2022-07-04T08:44:31;5.30;;;3.30;;
40793;SDS011;26502;51.886;15.604;2022-07-04T08:49:45;6.20;;;3.60;;
40793;SDS011;26502;51.886;15.604;2022-07-04T08:55:00;3.30;;;3.00;;
40793;SDS011;26502;51.886;15.604;2022-07-04T09:00:25;4.30;;;3.30;;
40793;SDS011;26502;51.886;15.604;2022-07-04T09:05:34;3.40;;;2.70;;
40793;SDS011;26502;51.886;15.604;2022-07-04T09:10:44;3.80;;;3.50;;
40793;SDS011;26502;51.886;15.604;2022-07-04T09:15:52;3.00;;;2.80;;
40793;SDS011;26502;51.886;15.604;2022-07-04T09:21:00;4.50;;;2.80;;
40793;SDS011;26502;51.886;15.604;2022-07-04T09:26:11;3.50;;;3.00;;
40793;SDS011;26502;51.886;15.604;2022-07-04T09:31:20;3.20;;;2.40;;
40793;SDS011;26502;51.886;15.604;2022-07-04T09:36:32;3.70;;;2.60;;
40793;SDS011;26502;51.886;15.604;2022-07-04T09:41:54;4.70;;;2.30;;
40793;SDS011;26502;51.886;15.604;2022-07-04T09:47:04;2.70;;;2.50;;
40793;SDS011;26502;51.886;15.604;2022-07-04T09:52:26;4.00;;;2.40;;
40793;SDS011;26502;51.886;15.604;2022-07-04T09:57:34;2.40;;;2.20;;
40793;SDS011;26502;51.886;15.604;2022-07-04T10:02:43;3.30;;;2.40;;
40793;SDS011;26502;51.886;15.604;2022-07-04T10:07:51;3.80;;;2.20;;
40793;SDS011;26502;51.886;15.604;2022-07-04T10:13:00;1.80;;;1.70;;
40793;SDS011;26502;51.886;15.604;2022-07-04T10:18:08;4.90;;;1.80;;
40793;SDS011;26502;51.886;15.604;2022-07-04T10:28:21;3.10;;;1.80;;
40793;SDS011;26502;51.886;15.604;2022-07-04T10:33:30;2.10;;;1.90;;
40793;SDS011;26502;51.886;15.604;2022-07-04T10:38:48;3.80;;;1.70;;
40793;SDS011;26502;51.886;15.604;2022-07-04T10:44:03;2.80;;;1.90;;
40793;SDS011;26502;51.886;15.604;2022-07-04T10:49:20;3.30;;;1.90;;
40793;SDS011;26502;51.886;15.604;2022-07-04T10:54:30;1.80;;;1.70;;
40793;SDS011;26502;51.886;15.604;2022-07-04T10:59:41;2.00;;;1.80;;
40793;SDS011;26502;51.886;15.604;2022-07-04T11:04:50;2.00;;;1.70;;
40793;SDS011;26502;51.886;15.604;2022-07-04T11:21:05;2.30;;;1.60;;
40793;SDS011;26502;51.886;15.604;2022-07-04T11:26:22;1.60;;;1.50;;
40793;SDS011;26502;51.886;15.604;2022-07-04T11:31:40;2.30;;;1.10;;
40793;SDS011;26502;51.886;15.604;2022-07-04T11:36:48;1.40;;;1.10;;
40793;SDS011;26502;51.886;15.604;2022-07-04T11:41:57;1.20;;;1.00;;
40793;SDS011;26502;51.886;15.604;2022-07-04T11:47:23;1.70;;;1.20;;
40793;SDS011;26502;51.886;15.604;2022-07-04T11:52:40;1.90;;;1.10;;
40793;SDS011;26502;51.886;15.604;2022-07-04T11:57:49;2.80;;;1.20;;
40793;SDS011;26502;51.886;15.604;2022-07-04T12:02:59;2.10;;;1.00;;
40793;SDS011;26502;51.886;15.604;2022-07-04T12:08:07;3.30;;;1.30;;
40793;SDS011;26502;51.886;15.604;2022-07-04T12:13:15;3.40;;;1.00;;
40793;SDS011;26502;51.886;15.604;2022-07-04T12:18:24;0.90;;;0.80;;
40793;SDS011;26502;51.886;15.604;2022-07-04T12:23:40;6.30;;;1.30;;
40793;SDS011;26502;51.886;15.604;2022-07-04T12:28:55;1.30;;;1.20;;
40793;SDS011;26502;51.886;15.604;2022-07-04T12:34:03;4.40;;;1.30;;
40793;SDS011;26502;51.886;15.604;2022-07-04T12:39:31;4.80;;;1.20;;
40793;SDS011;26502;51.886;15.604;2022-07-04T12:44:41;1.40;;;1.20;;
40793;SDS011;26502;51.886;15.604;2022-07-04T12:49:53;3.70;;;1.40;;
40793;SDS011;26502;51.886;15.604;2022-07-04T12:55:05;1.40;;;1.30;;
40793;SDS011;26502;51.886;15.604;2022-07-04T13:00:14;1.90;;;1.10;;
40793;SDS011;26502;51.886;15.604;2022-07-04T13:05:21;1.30;;;1.20;;
40793;SDS011;26502;51.886;15.604;2022-07-04T13:10:29;2.80;;;1.30;;
40793;SDS011;26502;51.886;15.604;2022-07-04T13:15:37;1.50;;;1.30;;
40793;SDS011;26502;51.886;15.604;2022-07-04T13:20:44;6.10;;;1.70;;
40793;SDS011;26502;51.886;15.604;2022-07-04T13:25:52;3.40;;;1.40;;
40793;SDS011;26502;51.886;15.604;2022-07-04T13:36:05;3.50;;;1.60;;
40793;SDS011;26502;51.886;15.604;2022-07-04T13:41:13;5.00;;;1.60;;
40793;SDS011;26502;51.886;15.604;2022-07-04T13:51:26;2.20;;;1.30;;
40793;SDS011;26502;51.886;15.604;2022-07-04T13:56:33;3.10;;;1.50;;
40793;SDS011;26502;51.886;15.604;2022-07-04T14:01:40;2.10;;;1.60;;
40793;SDS011;26502;51.886;15.604;2022-07-04T14:06:47;1.90;;;1.20;;
40793;SDS011;26502;51.886;15.604;2022-07-04T14:11:56;4.50;;;1.70;;
40793;SDS011;26502;51.886;15.604;2022-07-04T14:17:04;2.90;;;1.30;;
40793;SDS011;26502;51.886;15.604;2022-07-04T14:22:11;1.80;;;1.30;;
40793;SDS011;26502;51.886;15.604;2022-07-04T14:27:19;3.50;;;1.50;;
40793;SDS011;26502;51.886;15.604;2022-07-04T14:32:27;1.20;;;1.10;;
40793;SDS011;26502;51.886;15.604;2022-07-04T14:37:34;1.00;;;1.00;;
40793;SDS011;26502;51.886;15.604;2022-07-04T14:42:41;1.40;;;1.30;;
40793;SDS011;26502;51.886;15.604;2022-07-04T14:47:48;1.90;;;1.20;;
40793;SDS011;26502;51.886;15.604;2022-07-04T14:52:57;3.60;;;1.40;;
40793;SDS011;26502;51.886;15.604;2022-07-04T14:58:03;3.60;;;1.30;;
40793;SDS011;26502;51.886;15.604;2022-07-04T15:03:12;7.40;;;1.80;;
40793;SDS011;26502;51.886;15.604;2022-07-04T15:08:22;5.80;;;1.50;;
40793;SDS011;26502;51.886;15.604;2022-07-04T15:13:30;1.90;;;1.20;;
40793;SDS011;26502;51.886;15.604;2022-07-04T15:18:37;1.30;;;1.20;;
40793;SDS011;26502;51.886;15.604;2022-07-04T15:23:45;2.30;;;1.40;;
40793;SDS011;26502;51.886;15.604;2022-07-04T15:29:10;5.10;;;1.90;;
40793;SDS011;26502;51.886;15.604;2022-07-04T15:34:18;1.40;;;1.20;;
40793;SDS011;26502;51.886;15.604;2022-07-04T15:39:25;5.20;;;1.50;;
40793;SDS011;26502;51.886;15.604;2022-07-04T15:44:33;1.90;;;1.20;;
40793;SDS011;26502;51.886;15.604;2022-07-04T15:49:41;6.60;;;1.60;;
40793;SDS011;26502;51.886;15.604;2022-07-04T15:54:48;2.50;;;0.90;;
40793;SDS011;26502;51.886;15.604;2022-07-04T15:59:56;1.80;;;1.00;;
40793;SDS011;26502;51.886;15.604;2022-07-04T16:05:03;2.50;;;1.20;;
40793;SDS011;26502;51.886;15.604;2022-07-04T16:10:11;4.10;;;1.60;;
40793;SDS011;26502;51.886;15.604;2022-07-04T16:15:19;1.60;;;1.30;;
40793;SDS011;26502;51.886;15.604;2022-07-04T16:20:26;2.80;;;1.10;;
40793;SDS011;26502;51.886;15.604;2022-07-04T16:25:34;5.10;;;1.10;;
40793;SDS011;26502;51.886;15.604;2022-07-04T16:35:46;3.70;;;1.10;;
40793;SDS011;26502;51.886;15.604;2022-07-04T16:40:54;1.70;;;1.20;;
40793;SDS011;26502;51.886;15.604;2022-07-04T16:46:03;6.00;;;1.30;;
40793;SDS011;26502;51.886;15.604;2022-07-04T16:51:10;2.80;;;1.20;;
40793;SDS011;26502;51.886;15.604;2022-07-04T16:56:18;5.50;;;1.40;;
40793;SDS011;26502;51.886;15.604;2022-07-04T17:06:30;4.60;;;1.30;;
40793;SDS011;26502;51.886;15.604;2022-07-04T17:11:38;6.20;;;1.70;;
40793;SDS011;26502;51.886;15.604;2022-07-04T17:16:48;3.70;;;1.20;;
40793;SDS011;26502;51.886;15.604;2022-07-04T17:21:55;2.40;;;1.30;;
40793;SDS011;26502;51.886;15.604;2022-07-04T17:32:08;1.40;;;1.00;;
40793;SDS011;26502;51.886;15.604;2022-07-04T17:37:15;2.70;;;1.20;;
40793;SDS011;26502;51.886;15.604;2022-07-04T17:42:22;4.00;;;1.50;;
40793;SDS011;26502;51.886;15.604;2022-07-04T17:47:30;3.10;;;1.20;;
40793;SDS011;26502;51.886;15.604;2022-07-04T17:52:37;4.80;;;1.80;;
40793;SDS011;26502;51.886;15.604;2022-07-04T18:02:50;3.10;;;1.50;;
40793;SDS011;26502;51.886;15.604;2022-07-04T18:07:57;2.10;;;1.60;;
40793;SDS011;26502;51.886;15.604;2022-07-04T18:13:04;2.30;;;1.20;;
40793;SDS011;26502;51.886;15.604;2022-07-04T18:18:11;2.00;;;1.40;;
40793;SDS011;26502;51.886;15.604;2022-07-04T18:23:18;2.30;;;1.30;;
40793;SDS011;26502;51.886;15.604;2022-07-04T18:28:26;2.50;;;1.40;;
40793;SDS011;26502;51.886;15.604;2022-07-04T18:33:33;3.20;;;1.30;;
40793;SDS011;26502;51.886;15.604;2022-07-04T18:38:40;3.70;;;1.40;;
40793;SDS011;26502;51.886;15.604;2022-07-04T18:48:54;2.90;;;1.60;;
40793;SDS011;26502;51.886;15.604;2022-07-04T18:54:01;2.30;;;1.30;;
40793;SDS011;26502;51.886;15.604;2022-07-04T18:59:17;7.00;;;1.90;;
40793;SDS011;26502;51.886;15.604;2022-07-04T19:04:25;2.10;;;1.30;;
40793;SDS011;26502;51.886;15.604;2022-07-04T19:14:40;4.30;;;1.70;;
40793;SDS011;26502;51.886;15.604;2022-07-04T19:19:47;2.00;;;1.50;;
40793;SDS011;26502;51.886;15.604;2022-07-04T19:24:54;3.00;;;1.30;;
40793;SDS011;26502;51.886;15.604;2022-07-04T19:30:03;1.70;;;1.20;;
40793;SDS011;26502;51.886;15.604;2022-07-04T19:35:12;7.60;;;1.90;;
40793;SDS011;26502;51.886;15.604;2022-07-04T19:40:22;3.30;;;1.70;;
40793;SDS011;26502;51.886;15.604;2022-07-04T19:45:29;5.30;;;1.90;;
40793;SDS011;26502;51.886;15.604;2022-07-04T19:50:39;4.80;;;1.80;;
40793;SDS011;26502;51.886;15.604;2022-07-04T19:55:47;3.10;;;1.50;;
40793;SDS011;26502;51.886;15.604;2022-07-04T20:00:54;3.10;;;1.80;;
40793;SDS011;26502;51.886;15.604;2022-07-04T20:06:01;2.00;;;1.60;;
40793;SDS011;26502;51.886;15.604;2022-07-04T20:11:09;1.60;;;1.50;;
40793;SDS011;26502;51.886;15.604;2022-07-04T20:16:16;2.50;;;1.50;;
40793;SDS011;26502;51.886;15.604;2022-07-04T20:21:25;2.10;;;1.40;;
40793;SDS011;26502;51.886;15.604;2022-07-04T20:26:32;2.50;;;1.80;;
40793;SDS011;26502;51.886;15.604;2022-07-04T20:31:40;1.70;;;1.50;;
40793;SDS011;26502;51.886;15.604;2022-07-04T20:36:48;3.60;;;1.60;;
40793;SDS011;26502;51.886;15.604;2022-07-04T20:41:56;4.00;;;1.70;;
40793;SDS011;26502;51.886;15.604;2022-07-04T20:47:04;2.10;;;1.90;;
40793;SDS011;26502;51.886;15.604;2022-07-04T20:52:12;4.10;;;1.70;;
40793;SDS011;26502;51.886;15.604;2022-07-04T20:57:19;2.60;;;2.10;;
40793;SDS011;26502;51.886;15.604;2022-07-04T21:02:27;6.10;;;1.80;;
40793;SDS011;26502;51.886;15.604;2022-07-04T21:07:34;6.00;;;2.00;;
40793;SDS011;26502;51.886;15.604;2022-07-04T21:12:41;2.80;;;2.00;;
40793;SDS011;26502;51.886;15.604;2022-07-04T21:17:49;6.10;;;1.90;;
40793;SDS011;26502;51.886;15.604;2022-07-04T21:22:57;5.40;;;1.70;;
40793;SDS011;26502;51.886;15.604;2022-07-04T21:28:05;2.80;;;1.90;;
40793;SDS011;26502;51.886;15.604;2022-07-04T21:33:12;2.90;;;1.80;;
40793;SDS011;26502;51.886;15.604;2022-07-04T21:38:20;3.50;;;1.90;;
40793;SDS011;26502;51.886;15.604;2022-07-04T21:43:27;4.40;;;2.30;;
40793;SDS011;26502;51.886;15.604;2022-07-04T21:48:35;3.90;;;2.00;;
40793;SDS011;26502;51.886;15.604;2022-07-04T21:53:42;3.40;;;1.90;;
40793;SDS011;26502;51.886;15.604;2022-07-04T21:58:50;3.90;;;1.90;;
40793;SDS011;26502;51.886;15.604;2022-07-04T22:03:58;2.10;;;2.00;;
40793;SDS011;26502;51.886;15.604;2022-07-04T22:09:05;6.20;;;2.00;;
40793;SDS011;26502;51.886;15.604;2022-07-04T22:14:12;2.50;;;2.00;;
40793;SDS011;26502;51.886;15.604;2022-07-04T22:19:19;6.30;;;2.30;;
40793;SDS011;26502;51.886;15.604;2022-07-04T22:24:27;5.40;;;1.90;;
40793;SDS011;26502;51.886;15.604;2022-07-04T22:29:34;1.90;;;1.80;;
40793;SDS011;26502;51.886;15.604;2022-07-04T22:34:42;1.80;;;1.70;;
40793;SDS011;26502;51.886;15.604;2022-07-04T22:39:49;2.90;;;1.70;;
40793;SDS011;26502;51.886;15.604;2022-07-04T22:44:56;1.70;;;1.50;;
40793;SDS011;26502;51.886;15.604;2022-07-04T22:50:05;3.70;;;1.40;;
40793;SDS011;26502;51.886;15.604;2022-07-04T22:55:13;2.10;;;1.70;;
40793;SDS011;26502;51.886;15.604;2022-07-04T23:00:20;3.60;;;1.70;;
40793;SDS011;26502;51.886;15.604;2022-07-04T23:05:29;2.90;;;1.60;;
40793;SDS011;26502;51.886;15.604;2022-07-04T23:10:38;4.20;;;1.60;;
40793;SDS011;26502;51.886;15.604;2022-07-04T23:15:46;2.70;;;2.00;;
40793;SDS011;26502;51.886;15.604;2022-07-04T23:20:54;2.00;;;1.70;;
40793;SDS011;26502;51.886;15.604;2022-07-04T23:26:01;2.10;;;1.50;;
40793;SDS011;26502;51.886;15.604;2022-07-04T23:31:09;1.90;;;1.60;;
40793;SDS011;26502;51.886;15.604;2022-07-04T23:36:16;1.80;;;1.40;;
40793;SDS011;26502;51.886;15.604;2022-07-04T23:41:24;1.90;;;1.60;;
40793;SDS011;26502;51.886;15.604;2022-07-04T23:46:32;3.40;;;1.10;;
40793;SDS011;26502;51.886;15.604;2022-07-04T23:51:40;3.40;;;1.40;;
40793;SDS011;26502;51.886;15.604;2022-07-04T23:56:47;1.80;;;1.30;;
